createdAt,value
2023-01-05T00:01:55.772Z,9.60
2023-01-05T00:04:24.101Z,9.40
2023-01-05T00:06:52.636Z,9.70
2023-01-05T00:09:21.849Z,9.60
2023-01-05T00:12:07.077Z,9.60
2023-01-05T00:14:53.154Z,10.80
2023-01-05T00:17:40.499Z,9.60
2023-01-05T00:20:32.739Z,9.60
2023-01-05T00:23:01.123Z,9.60
2023-01-05T00:25:31.556Z,9.60
2023-01-05T00:27:59.551Z,9.60
2023-01-05T00:30:29.612Z,9.60
2023-01-05T00:32:57.536Z,9.50
2023-01-05T00:35:25.491Z,9.60
2023-01-05T00:37:53.351Z,9.10
2023-01-05T00:40:22.798Z,9.60
2023-01-05T00:42:52.042Z,9.90
2023-01-05T00:45:21.944Z,9.60
2023-01-05T00:47:51.699Z,9.70
2023-01-05T00:50:20.713Z,9.60
2023-01-05T00:52:49.364Z,9.70
2023-01-05T00:55:17.342Z,9.70
2023-01-05T00:57:45.365Z,9.70
2023-01-05T01:00:17.742Z,9.70
2023-01-05T01:02:45.993Z,9.70
2023-01-05T01:05:14.085Z,9.70
2023-01-05T01:07:41.993Z,9.70
2023-01-05T01:10:11.380Z,9.70
2023-01-05T01:12:39.415Z,9.70
2023-01-05T01:15:08.783Z,9.70
2023-01-05T01:17:38.092Z,9.70
2023-01-05T01:20:07.310Z,9.70
2023-01-05T01:22:35.240Z,9.70
2023-01-05T01:25:03.156Z,10.30
2023-01-05T01:27:31.368Z,9.70
2023-01-05T01:29:59.274Z,9.70
2023-01-05T01:32:27.188Z,9.10
2023-01-05T01:34:56.442Z,9.70
2023-01-05T01:37:24.363Z,9.70
2023-01-05T01:39:52.228Z,9.70
2023-01-05T01:42:22.263Z,9.60
2023-01-05T01:44:56.357Z,9.60
2023-01-05T01:47:33.573Z,9.60
2023-01-05T01:50:06.895Z,9.50
2023-01-05T01:52:36.658Z,10.00
2023-01-05T01:55:06.624Z,9.50
2023-01-05T01:57:35.967Z,9.50
2023-01-05T02:00:07.879Z,9.50
2023-01-05T02:02:35.960Z,9.60
2023-01-05T02:05:10.041Z,9.60
2023-01-05T02:07:44.465Z,9.60
2023-01-05T02:10:13.030Z,9.60
2023-01-05T02:12:58.112Z,11.00
2023-01-05T02:15:37.146Z,9.70
2023-01-05T02:18:16.168Z,9.70
2023-01-05T02:20:58.320Z,11.20
2023-01-05T02:23:54.837Z,9.70
2023-01-05T02:27:10.648Z,9.70
2023-01-05T02:30:06.474Z,9.70
2023-01-05T02:32:44.144Z,9.70
2023-01-05T02:35:20.820Z,9.70
2023-01-05T02:38:00.360Z,10.60
2023-01-05T02:40:32.888Z,9.60
2023-01-05T02:43:01.980Z,9.50
2023-01-05T02:45:29.980Z,9.10
2023-01-05T02:47:59.463Z,9.50
2023-01-05T02:50:32.864Z,9.40
2023-01-05T02:53:04.764Z,9.40
2023-01-05T02:55:38.258Z,9.30
2023-01-05T02:58:14.097Z,9.20
2023-01-05T03:00:45.323Z,9.20
2023-01-05T03:03:19.360Z,9.20
2023-01-05T03:05:52.091Z,9.20
2023-01-05T03:08:27.665Z,9.10
2023-01-05T03:11:20.457Z,9.10
2023-01-05T03:13:51.900Z,9.20
2023-01-05T03:16:27.410Z,9.20
2023-01-05T03:19:27.172Z,9.10
2023-01-05T03:22:14.795Z,9.20
2023-01-05T03:25:01.426Z,9.20
2023-01-05T03:27:47.673Z,9.20
2023-01-05T03:30:33.094Z,9.20
2023-01-05T03:33:26.062Z,9.20
2023-01-05T03:35:58.518Z,9.30
2023-01-05T03:38:31.300Z,9.20
2023-01-05T03:41:03.417Z,8.70
2023-01-05T03:43:35.288Z,9.30
2023-01-05T03:46:11.461Z,9.30
2023-01-05T03:48:39.420Z,9.10
2023-01-05T03:51:09.306Z,9.30
2023-01-05T03:53:37.397Z,9.30
2023-01-05T03:56:05.849Z,9.30
2023-01-05T03:58:33.742Z,9.30
2023-01-05T04:01:01.652Z,9.30
2023-01-05T04:03:31.990Z,9.20
2023-01-05T04:06:00.233Z,9.30
2023-01-05T04:08:29.483Z,9.30
2023-01-05T04:10:57.402Z,9.30
2023-01-05T04:13:25.988Z,9.30
2023-01-05T04:15:53.912Z,9.30
2023-01-05T04:18:21.810Z,9.20
2023-01-05T04:20:49.694Z,9.20
2023-01-05T04:23:17.567Z,9.30
2023-01-05T04:25:48.809Z,11.20
2023-01-05T04:28:16.709Z,9.20
2023-01-05T04:30:45.017Z,9.20
2023-01-05T04:33:13.122Z,9.20
2023-01-05T04:35:41.225Z,9.20
2023-01-05T04:38:09.117Z,9.20
2023-01-05T04:40:37.031Z,9.20
2023-01-05T04:43:06.888Z,9.20
2023-01-05T04:45:35.359Z,9.20
2023-01-05T04:48:03.207Z,9.10
2023-01-05T04:50:31.102Z,9.20
2023-01-05T04:52:59.007Z,9.10
2023-01-05T04:55:27.814Z,9.10
2023-01-05T04:57:55.689Z,9.10
2023-01-05T05:00:25.113Z,9.10
2023-01-05T05:02:53.072Z,9.00
2023-01-05T05:05:21.021Z,9.00
2023-01-05T05:07:48.893Z,9.00
2023-01-05T05:10:18.146Z,9.00
2023-01-05T05:12:46.134Z,9.00
2023-01-05T05:15:14.023Z,9.00
2023-01-05T05:17:43.248Z,9.00
2023-01-05T05:20:11.790Z,9.00
2023-01-05T05:22:39.764Z,9.00
2023-01-05T05:25:08.764Z,9.00
2023-01-05T05:27:36.667Z,9.00
2023-01-05T05:30:05.191Z,9.00
2023-01-05T05:32:33.161Z,9.00
2023-01-05T05:35:02.401Z,9.00
2023-01-05T05:37:30.286Z,9.00
2023-01-05T05:39:58.155Z,9.00
2023-01-05T05:42:26.063Z,9.00
2023-01-05T05:44:53.915Z,9.00
2023-01-05T05:47:21.808Z,9.00
2023-01-05T05:49:49.750Z,9.90
2023-01-05T05:52:19.028Z,8.90
2023-01-05T05:54:46.918Z,8.90
2023-01-05T05:57:15.025Z,9.00
2023-01-05T05:59:42.880Z,9.00
2023-01-05T06:02:11.004Z,9.10
2023-01-05T06:04:38.919Z,9.00
2023-01-05T06:07:06.799Z,9.00
2023-01-05T06:09:36.049Z,9.10
2023-01-05T06:12:04.285Z,9.00
2023-01-05T06:14:32.225Z,9.10
2023-01-05T06:17:00.625Z,9.10
2023-01-05T06:19:28.504Z,9.10
2023-01-05T06:21:56.483Z,9.10
2023-01-05T06:24:24.531Z,9.60
2023-01-05T06:26:53.748Z,9.10
2023-01-05T06:29:21.734Z,9.10
2023-01-05T06:31:49.804Z,9.10
2023-01-05T06:34:17.733Z,9.10
2023-01-05T06:36:45.587Z,9.10
2023-01-05T06:39:13.625Z,9.10
2023-01-05T06:41:41.548Z,10.40
2023-01-05T06:44:11.193Z,9.00
2023-01-05T06:46:39.059Z,9.00
2023-01-05T06:49:06.971Z,9.00
2023-01-05T06:51:34.823Z,9.60
2023-01-05T06:54:02.801Z,9.00
2023-01-05T06:56:30.647Z,9.00
2023-01-05T06:58:58.513Z,10.30
2023-01-05T07:01:27.924Z,9.00
2023-01-05T07:03:55.932Z,9.10
2023-01-05T07:06:23.879Z,9.00
2023-01-05T07:08:51.778Z,9.00
2023-01-05T07:11:19.673Z,9.00
2023-01-05T07:13:48.818Z,9.80
2023-01-05T07:16:16.839Z,9.80
2023-01-05T07:18:46.343Z,9.00
2023-01-05T07:21:14.363Z,9.00
2023-01-05T07:23:42.291Z,9.00
2023-01-05T07:26:10.750Z,9.00
2023-01-05T07:28:39.372Z,9.00
2023-01-05T07:31:08.338Z,9.00
2023-01-05T07:33:39.939Z,8.90
2023-01-05T07:36:10.102Z,9.40
2023-01-05T07:38:37.998Z,8.90
2023-01-05T07:41:06.211Z,8.90
2023-01-05T07:43:35.569Z,8.90
2023-01-05T07:46:05.034Z,8.90
2023-01-05T07:48:33.027Z,9.50
2023-01-05T07:51:02.479Z,9.00
2023-01-05T07:53:38.153Z,9.00
2023-01-05T07:56:11.673Z,9.00
2023-01-05T07:58:39.626Z,9.00
2023-01-05T08:01:09.099Z,9.00
2023-01-05T08:03:37.359Z,9.00
2023-01-05T08:06:06.374Z,9.10
2023-01-05T08:08:35.619Z,9.10
2023-01-05T08:11:05.271Z,9.10
2023-01-05T08:13:50.585Z,9.10
2023-01-05T08:16:18.706Z,9.10
2023-01-05T08:18:46.692Z,9.20
2023-01-05T08:21:14.798Z,9.20
2023-01-05T08:23:45.694Z,9.20
2023-01-05T08:26:15.669Z,9.20
2023-01-05T08:28:44.662Z,9.20
2023-01-05T08:31:15.362Z,9.30
2023-01-05T08:33:43.784Z,9.30
2023-01-05T08:36:14.251Z,9.30
2023-01-05T08:38:48.062Z,9.30
2023-01-05T08:41:17.913Z,10.90
2023-01-05T08:43:50.326Z,9.30
2023-01-05T08:46:18.244Z,9.30
2023-01-05T08:48:49.928Z,9.30
2023-01-05T08:51:18.212Z,9.30
2023-01-05T08:53:47.896Z,9.20
2023-01-05T08:56:16.038Z,9.20
2023-01-05T08:58:44.228Z,9.70
2023-01-05T09:01:14.022Z,10.50
2023-01-05T09:03:42.541Z,9.20
2023-01-05T09:06:12.198Z,9.10
2023-01-05T09:08:41.674Z,11.00
2023-01-05T09:11:12.700Z,9.00
2023-01-05T09:13:41.905Z,9.00
2023-01-05T09:16:12.364Z,9.00
2023-01-05T09:18:41.729Z,10.90
2023-01-05T09:21:10.615Z,9.00
2023-01-05T09:23:39.087Z,9.00
2023-01-05T09:26:08.230Z,9.00
2023-01-05T09:28:37.893Z,9.00
2023-01-05T09:31:10.173Z,9.70
2023-01-05T09:33:38.252Z,9.00
2023-01-05T09:36:07.058Z,9.00
2023-01-05T09:38:35.620Z,9.00
2023-01-05T09:41:08.797Z,9.00
2023-01-05T09:43:40.369Z,8.90
2023-01-05T09:46:14.778Z,8.90
2023-01-05T09:48:45.969Z,8.90
2023-01-05T09:51:14.594Z,9.00
2023-01-05T09:53:42.731Z,9.00
2023-01-05T09:57:07.506Z,9.00
2023-01-05T09:59:24.878Z,9.00
2023-01-05T10:01:55.536Z,9.10
2023-01-05T10:04:30.574Z,9.10
2023-01-05T10:07:02.470Z,9.10
2023-01-05T10:09:33.177Z,9.10
2023-01-05T10:12:24.925Z,9.00
2023-01-05T10:14:58.590Z,9.20
2023-01-05T10:17:44.768Z,9.00
2023-01-05T10:20:18.712Z,9.00
2023-01-05T10:22:59.509Z,8.90
2023-01-05T10:25:36.261Z,9.00
2023-01-05T10:28:28.253Z,9.00
2023-01-05T10:31:00.293Z,9.70
2023-01-05T10:33:53.117Z,9.00
2023-01-05T10:37:10.870Z,9.50
2023-01-05T10:40:03.339Z,9.10
2023-01-05T10:42:45.282Z,9.40
2023-01-05T10:45:15.671Z,10.60
2023-01-05T10:47:46.171Z,9.10
2023-01-05T10:50:31.504Z,9.10
2023-01-05T10:53:00.118Z,9.10
2023-01-05T10:55:30.931Z,9.10
2023-01-05T10:57:58.840Z,9.20
2023-01-05T11:00:41.890Z,9.20
2023-01-05T11:03:16.063Z,9.30
2023-01-05T11:05:45.684Z,9.40
2023-01-05T11:08:19.194Z,9.50
2023-01-05T11:10:53.111Z,9.30
2023-01-05T11:13:28.977Z,9.40
2023-01-05T11:16:00.814Z,9.40
2023-01-05T11:18:36.894Z,9.40
2023-01-05T11:21:16.062Z,9.60
2023-01-05T11:23:45.593Z,9.70
2023-01-05T11:26:31.586Z,9.70
2023-01-05T11:29:06.631Z,9.70
2023-01-05T11:31:37.311Z,9.70
2023-01-05T11:34:14.233Z,9.70
2023-01-05T11:36:43.122Z,9.70
2023-01-05T11:39:27.411Z,9.70
2023-01-05T11:42:26.781Z,10.50
2023-01-05T11:44:58.127Z,9.70
2023-01-05T11:47:30.557Z,9.70
2023-01-05T11:50:08.460Z,9.80
2023-01-05T11:52:38.790Z,9.80
2023-01-05T11:55:36.140Z,9.80
2023-01-05T11:58:25.914Z,9.90
2023-01-05T12:01:08.592Z,10.30
2023-01-05T12:03:56.905Z,9.90
2023-01-05T12:06:51.005Z,9.90
2023-01-05T12:09:29.835Z,9.90
2023-01-05T12:12:21.846Z,10.50
2023-01-05T12:15:07.039Z,9.80
2023-01-05T12:17:42.172Z,9.80
2023-01-05T12:20:27.907Z,9.80
2023-01-05T12:23:07.221Z,9.70
2023-01-05T12:25:49.267Z,9.70
2023-01-05T12:28:41.329Z,9.60
2023-01-05T12:34:38.066Z,9.50
2023-01-05T12:37:21.975Z,9.50
2023-01-05T12:40:05.363Z,9.50
2023-01-05T12:42:58.774Z,9.50
2023-01-05T12:46:05.674Z,9.50
2023-01-05T12:48:38.699Z,9.50
2023-01-05T12:51:13.272Z,9.60
2023-01-05T12:53:49.531Z,9.60
2023-01-05T12:56:25.655Z,9.70
2023-01-05T12:59:08.354Z,9.60
2023-01-05T13:01:41.087Z,9.60
2023-01-05T13:04:18.092Z,9.70
2023-01-05T13:06:49.600Z,9.70
2023-01-05T13:09:22.422Z,9.70
2023-01-05T13:11:56.777Z,9.70
2023-01-05T13:14:28.909Z,9.70
2023-01-05T13:17:01.940Z,9.80
2023-01-05T13:19:34.241Z,9.90
2023-01-05T13:22:05.843Z,10.40
2023-01-05T13:24:37.428Z,9.90
2023-01-05T13:27:07.240Z,9.90
2023-01-05T13:29:40.068Z,9.80
2023-01-05T13:32:23.579Z,9.80
2023-01-05T13:35:12.921Z,9.80
2023-01-05T13:38:04.510Z,9.80
2023-01-05T13:40:51.184Z,9.70
2023-01-05T13:43:40.025Z,11.70
2023-01-05T13:46:26.587Z,9.70
2023-01-05T13:49:20.106Z,9.70
2023-01-05T13:51:54.774Z,9.70
2023-01-05T13:54:48.983Z,9.70
2023-01-05T13:57:21.756Z,9.60
2023-01-05T14:00:04.766Z,9.60
2023-01-05T14:02:41.253Z,9.60
2023-01-05T14:05:23.536Z,9.60
2023-01-05T14:07:55.241Z,9.50
2023-01-05T14:10:25.897Z,9.50
2023-01-05T14:12:55.166Z,9.50
2023-01-05T14:15:40.009Z,9.50
2023-01-05T14:18:10.551Z,9.40
2023-01-05T14:20:42.256Z,9.40
2023-01-05T14:23:47.761Z,9.40
2023-01-05T14:26:15.675Z,9.40
2023-01-05T14:28:49.214Z,9.40
2023-01-05T14:31:51.780Z,9.30
2023-01-05T14:34:21.614Z,9.30
2023-01-05T14:37:07.655Z,9.30
2023-01-05T14:39:43.713Z,9.20
2023-01-05T14:42:23.308Z,9.20
2023-01-05T14:44:52.903Z,9.20
2023-01-05T14:47:36.291Z,9.30
2023-01-05T14:50:06.912Z,9.10
2023-01-05T14:52:54.543Z,9.10
2023-01-05T14:55:37.643Z,9.10
2023-01-05T14:58:07.607Z,9.10
2023-01-05T15:00:55.040Z,9.10
2023-01-05T15:03:35.537Z,9.10
2023-01-05T15:06:09.423Z,9.80
2023-01-05T15:09:06.694Z,9.60
2023-01-05T15:11:51.546Z,9.00
2023-01-05T15:14:52.944Z,9.00
2023-01-05T15:18:08.958Z,9.00
2023-01-05T15:21:03.147Z,8.90
2023-01-05T15:24:02.985Z,9.00
2023-01-05T15:26:48.956Z,9.00
2023-01-05T15:29:51.444Z,10.20
2023-01-05T15:32:22.215Z,8.90
2023-01-05T15:34:56.228Z,8.90
2023-01-05T15:37:34.567Z,9.10
2023-01-05T15:40:04.400Z,8.90
2023-01-05T15:42:39.425Z,8.90
2023-01-05T15:45:15.822Z,8.90
2023-01-05T15:47:43.989Z,8.80
2023-01-05T15:50:20.950Z,8.80
2023-01-05T15:52:56.150Z,8.80
2023-01-05T15:55:24.666Z,8.80
2023-01-05T15:57:55.382Z,8.70
2023-01-05T16:00:26.334Z,8.80
2023-01-05T16:02:54.301Z,8.80
2023-01-05T16:05:24.020Z,8.80
2023-01-05T16:07:57.655Z,8.80
2023-01-05T16:10:29.453Z,8.80
2023-01-05T16:13:04.266Z,8.80
2023-01-05T16:15:35.360Z,8.80
2023-01-05T16:18:05.977Z,8.80
2023-01-05T16:20:35.781Z,8.80
2023-01-05T16:23:12.668Z,10.20
2023-01-05T16:25:43.166Z,8.80
2023-01-05T16:28:17.356Z,8.80
2023-01-05T16:30:47.479Z,8.80
2023-01-05T16:33:30.243Z,8.70
2023-01-05T16:36:19.243Z,10.10
2023-01-05T16:38:48.893Z,8.70
2023-01-05T16:41:22.919Z,8.70
2023-01-05T16:43:56.786Z,8.70
2023-01-05T16:46:36.969Z,8.70
2023-01-05T16:49:33.062Z,8.80
2023-01-05T16:52:01.867Z,8.60
2023-01-05T16:54:37.066Z,8.60
2023-01-05T16:57:28.893Z,8.60
2023-01-05T16:59:57.069Z,8.60
2023-01-05T17:02:47.811Z,8.60
2023-01-05T17:05:18.069Z,8.50
2023-01-05T17:07:48.066Z,8.50
2023-01-05T17:10:24.002Z,9.50
2023-01-05T17:13:00.127Z,8.50
2023-01-05T17:15:32.269Z,8.50
2023-01-05T17:18:00.975Z,8.50
2023-01-05T17:20:32.901Z,8.50
2023-01-05T17:23:00.881Z,8.50
2023-01-05T17:25:33.600Z,8.50
2023-01-05T17:28:01.551Z,8.50
2023-01-05T17:30:29.472Z,8.50
2023-01-05T17:32:57.438Z,8.40
2023-01-05T17:35:25.614Z,10.20
2023-01-05T17:37:53.457Z,8.50
2023-01-05T17:40:23.157Z,8.50
2023-01-05T17:42:52.521Z,8.40
2023-01-05T17:45:23.326Z,8.40
2023-01-05T17:47:52.207Z,8.40
2023-01-05T17:50:22.659Z,8.40
2023-01-05T17:52:50.697Z,8.40
2023-01-05T17:55:18.665Z,8.40
2023-01-05T17:57:46.797Z,8.30
2023-01-05T18:00:21.824Z,8.30
2023-01-05T18:02:51.070Z,8.30
2023-01-05T18:05:19.468Z,8.30
2023-01-05T18:07:48.271Z,8.30
2023-01-05T18:10:18.605Z,8.30
2023-01-05T18:12:46.529Z,8.30
2023-01-05T18:15:16.227Z,9.20
2023-01-05T18:17:44.250Z,8.30
2023-01-05T18:20:15.640Z,8.30
2023-01-05T18:22:44.794Z,9.10
2023-01-05T18:25:13.299Z,8.30
2023-01-05T18:27:41.415Z,8.30
2023-01-05T18:30:11.079Z,8.30
2023-01-05T18:32:40.672Z,8.30
2023-01-05T18:35:10.386Z,8.30
2023-01-05T18:37:39.154Z,8.30
2023-01-05T18:40:08.381Z,8.30
2023-01-05T18:42:37.836Z,8.30
2023-01-05T18:45:19.062Z,8.20
2023-01-05T18:47:58.732Z,8.20
2023-01-05T18:50:26.908Z,8.10
2023-01-05T18:52:54.876Z,8.70
2023-01-05T18:55:22.850Z,7.90
2023-01-05T18:57:50.693Z,7.90
2023-01-05T19:00:19.231Z,7.80
2023-01-05T19:02:47.115Z,7.80
2023-01-05T19:05:16.956Z,7.70
2023-01-05T19:07:44.860Z,7.60
2023-01-05T19:10:12.820Z,7.60
2023-01-05T19:12:40.803Z,7.50
2023-01-05T19:15:11.071Z,6.90
2023-01-05T19:17:39.094Z,7.50
2023-01-05T19:20:07.974Z,7.50
2023-01-05T19:22:37.275Z,7.60
2023-01-05T19:25:06.994Z,7.60
2023-01-05T19:27:35.446Z,7.60
2023-01-05T19:30:04.768Z,7.70
2023-01-05T19:32:36.663Z,7.70
2023-01-05T19:35:05.593Z,7.70
2023-01-05T19:37:35.574Z,7.70
2023-01-05T19:40:05.146Z,7.70
2023-01-05T19:42:33.328Z,7.70
2023-01-05T19:45:03.435Z,7.70
2023-01-05T19:47:31.460Z,7.60
2023-01-05T19:49:59.361Z,7.60
2023-01-05T19:52:29.736Z,7.60
2023-01-05T19:54:57.697Z,7.50
2023-01-05T19:57:28.503Z,7.50
2023-01-05T19:59:56.370Z,7.50
2023-01-05T20:02:25.734Z,7.50
2023-01-05T20:04:54.165Z,7.40
2023-01-05T20:07:22.808Z,7.40
2023-01-05T20:09:51.323Z,7.30
2023-01-05T20:12:19.717Z,7.30
2023-01-05T20:14:48.954Z,7.30
2023-01-05T20:17:16.956Z,7.30
2023-01-05T20:19:45.362Z,7.30
2023-01-05T20:22:14.807Z,7.30
2023-01-05T20:24:43.721Z,7.20
2023-01-05T20:27:14.048Z,7.20
2023-01-05T20:29:42.036Z,7.20
2023-01-05T20:32:14.684Z,7.10
2023-01-05T20:34:44.261Z,7.20
2023-01-05T20:37:12.895Z,7.20
2023-01-05T20:39:42.057Z,7.20
2023-01-05T20:42:10.953Z,7.30
2023-01-05T20:44:41.716Z,7.40
2023-01-05T20:47:11.497Z,7.40
2023-01-05T20:49:40.611Z,7.50
2023-01-05T20:52:10.547Z,7.60
2023-01-05T20:54:38.787Z,7.60
2023-01-05T20:57:06.966Z,7.70
2023-01-05T20:59:38.574Z,7.70
2023-01-05T21:02:18.322Z,7.70
2023-01-05T21:04:52.157Z,7.70
2023-01-05T21:07:20.233Z,7.80
2023-01-05T21:09:48.391Z,7.80
2023-01-05T21:12:16.302Z,7.90
2023-01-05T21:14:44.463Z,7.90
2023-01-05T21:17:12.354Z,8.00
2023-01-05T21:19:40.287Z,8.00
2023-01-05T21:22:09.553Z,8.00
2023-01-05T21:24:37.873Z,8.00
2023-01-05T21:27:05.940Z,8.00
2023-01-05T21:29:34.276Z,8.10
2023-01-05T21:32:02.202Z,8.10
2023-01-05T21:34:30.308Z,8.10
2023-01-05T21:36:58.208Z,8.10
2023-01-05T21:39:28.454Z,8.10
2023-01-05T21:42:14.040Z,8.10
2023-01-05T21:44:42.454Z,8.20
2023-01-05T21:47:10.470Z,8.20
2023-01-05T21:49:38.383Z,8.20
2023-01-05T21:52:24.295Z,8.20
2023-01-05T21:55:22.232Z,8.20
2023-01-05T21:57:50.102Z,8.30
2023-01-05T22:00:18.170Z,8.30
2023-01-05T22:02:46.094Z,8.30
2023-01-05T22:05:14.008Z,8.30
2023-01-05T22:07:41.903Z,8.30
2023-01-05T22:10:12.229Z,8.30
2023-01-05T22:12:40.250Z,8.30
2023-01-05T22:15:09.274Z,8.40
2023-01-05T22:17:37.167Z,8.40
2023-01-05T22:20:05.467Z,8.40
2023-01-05T22:22:33.360Z,8.40
2023-01-05T22:25:01.231Z,8.40
2023-01-05T22:27:31.601Z,8.40
2023-01-05T22:29:59.483Z,8.40
2023-01-05T22:32:27.349Z,8.50
2023-01-05T22:34:55.222Z,8.40
2023-01-05T22:37:23.121Z,8.40
2023-01-05T22:39:50.991Z,8.50
2023-01-05T22:42:18.885Z,8.40
2023-01-05T22:44:48.249Z,8.60
2023-01-05T22:47:16.126Z,8.40
2023-01-05T22:49:43.992Z,8.50
2023-01-05T22:52:11.925Z,8.50
2023-01-05T22:54:40.115Z,8.40
2023-01-05T22:57:08.339Z,8.50
2023-01-05T22:59:36.273Z,8.50
2023-01-05T23:02:05.560Z,8.50
2023-01-05T23:04:33.533Z,8.50
2023-01-05T23:07:01.415Z,8.50
2023-01-05T23:09:29.294Z,8.50
2023-01-05T23:11:57.403Z,8.30
2023-01-05T23:14:25.283Z,8.60
2023-01-05T23:16:53.258Z,8.60
2023-01-05T23:19:22.574Z,8.60
2023-01-05T23:21:50.460Z,8.60
2023-01-05T23:24:18.463Z,8.60
2023-01-05T23:26:46.366Z,8.50
2023-01-05T23:29:14.279Z,8.70
2023-01-05T23:31:42.170Z,8.70
2023-01-05T23:34:10.081Z,8.70
2023-01-05T23:36:39.328Z,8.70
2023-01-05T23:39:07.226Z,8.70
2023-01-05T23:41:35.159Z,8.70
2023-01-05T23:44:03.063Z,8.80
2023-01-05T23:46:31.013Z,9.10
2023-01-05T23:48:58.962Z,8.80
2023-01-05T23:51:26.853Z,8.80
2023-01-05T23:53:56.139Z,8.90
2023-01-05T23:56:25.635Z,8.80
2023-01-05T23:58:57.158Z,8.90
